createdAt,value
2017-09-25T00:01:36.425Z,19.67
2017-09-25T00:04:04.766Z,18.30
2017-09-25T00:06:33.100Z,17.00
2017-09-25T00:09:01.435Z,18.90
2017-09-25T00:11:30.183Z,18.00
2017-09-25T00:13:59.206Z,18.90
2017-09-25T00:16:28.148Z,19.23
2017-09-25T00:18:56.519Z,18.07
2017-09-25T00:21:24.847Z,18.93
2017-09-25T00:23:53.168Z,18.80
2017-09-25T00:26:23.124Z,19.20
2017-09-25T00:28:52.153Z,17.63
2017-09-25T00:31:20.468Z,20.77
2017-09-25T00:33:48.947Z,18.07
2017-09-25T00:36:17.714Z,18.90
2017-09-25T00:38:46.690Z,18.50
2017-09-25T00:41:15.539Z,20.97
2017-09-25T00:43:44.676Z,21.90
2017-09-25T00:46:13.070Z,22.30
2017-09-25T00:48:41.767Z,21.77
2017-09-25T00:51:10.339Z,20.23
2017-09-25T00:53:52.864Z,21.63
2017-09-25T00:56:22.790Z,20.90
2017-09-25T00:58:51.328Z,20.87
2017-09-25T01:01:25.645Z,22.43
2017-09-25T01:03:55.218Z,21.90
2017-09-25T01:06:25.171Z,21.13
2017-09-25T01:08:54.452Z,22.13
2017-09-25T01:11:25.535Z,19.80
2017-09-25T01:13:55.293Z,20.90
2017-09-25T01:16:23.819Z,23.23
2017-09-25T01:18:52.234Z,19.47
2017-09-25T01:21:20.590Z,20.77
2017-09-25T01:23:49.090Z,20.30
2017-09-25T01:26:19.370Z,21.43
2017-09-25T01:28:48.340Z,20.70
2017-09-25T01:31:17.167Z,20.60
2017-09-25T01:33:45.988Z,20.93
2017-09-25T01:36:14.362Z,23.10
2017-09-25T01:38:43.851Z,22.23
2017-09-25T01:41:12.356Z,22.07
2017-09-25T01:43:43.000Z,23.30
2017-09-25T01:46:12.444Z,20.83
2017-09-25T01:48:42.036Z,23.17
2017-09-25T01:51:10.516Z,21.73
2017-09-25T01:53:39.486Z,23.43
2017-09-25T01:56:09.005Z,24.80
2017-09-25T01:58:38.085Z,22.03
2017-09-25T02:01:06.423Z,21.13
2017-09-25T02:03:36.274Z,21.60
2017-09-25T02:06:04.575Z,21.60
2017-09-25T02:08:33.680Z,21.50
2017-09-25T02:11:02.776Z,21.23
2017-09-25T02:13:31.847Z,21.77
2017-09-25T02:16:00.158Z,21.20
2017-09-25T02:18:28.494Z,22.53
2017-09-25T02:20:56.790Z,21.33
2017-09-25T02:23:25.069Z,20.60
2017-09-25T02:25:53.374Z,21.90
2017-09-25T02:28:22.707Z,22.03
2017-09-25T02:30:51.016Z,20.80
2017-09-25T02:33:19.856Z,25.50
2017-09-25T02:35:48.370Z,22.13
2017-09-25T02:38:16.675Z,23.13
2017-09-25T02:40:45.331Z,22.83
2017-09-25T02:43:13.639Z,21.30
2017-09-25T02:45:41.947Z,22.53
2017-09-25T02:48:11.154Z,23.73
2017-09-25T02:50:39.539Z,21.93
2017-09-25T02:53:09.200Z,22.40
2017-09-25T02:55:37.497Z,21.50
2017-09-25T02:58:06.539Z,20.57
2017-09-25T03:00:34.823Z,23.20
2017-09-25T03:03:03.186Z,20.77
2017-09-25T03:05:31.486Z,22.13
2017-09-25T03:07:59.785Z,21.17
2017-09-25T03:10:29.540Z,23.50
2017-09-25T03:12:58.018Z,21.23
2017-09-25T03:15:26.314Z,21.73
2017-09-25T03:17:54.769Z,23.90
2017-09-25T03:20:23.126Z,22.83
2017-09-25T03:22:51.499Z,22.50
2017-09-25T03:25:20.771Z,22.17
2017-09-25T03:27:49.119Z,22.07
2017-09-25T03:30:17.565Z,23.10
2017-09-25T03:32:45.954Z,22.27
2017-09-25T03:35:15.383Z,23.33
2017-09-25T03:37:43.695Z,22.73
2017-09-25T03:40:12.344Z,21.40
2017-09-25T03:42:40.803Z,24.73
2017-09-25T03:45:09.508Z,21.43
2017-09-25T03:47:37.798Z,19.50
2017-09-25T03:50:06.107Z,21.40
2017-09-25T03:52:34.477Z,21.37
2017-09-25T03:55:03.127Z,21.70
2017-09-25T03:57:31.436Z,20.80
2017-09-25T04:00:00.064Z,21.93
2017-09-25T04:02:30.825Z,22.30
2017-09-25T04:04:59.617Z,21.37
2017-09-25T04:07:28.171Z,19.83
2017-09-25T04:09:56.471Z,20.73
2017-09-25T04:12:24.851Z,20.63
2017-09-25T04:14:53.172Z,21.10
2017-09-25T04:17:21.498Z,19.13
2017-09-25T04:19:50.025Z,21.27
2017-09-25T04:22:20.570Z,21.30
2017-09-25T04:24:49.251Z,22.23
2017-09-25T04:28:21.175Z,21.70
2017-09-25T04:30:50.106Z,19.60
2017-09-25T04:33:18.491Z,20.80
2017-09-25T04:35:47.255Z,20.67
2017-09-25T04:38:15.923Z,21.40
2017-09-25T04:40:44.219Z,20.90
2017-09-25T04:43:12.830Z,20.00
2017-09-25T04:45:41.299Z,20.67
2017-09-25T04:48:10.159Z,21.40
2017-09-25T04:50:54.373Z,20.30
2017-09-25T04:53:24.665Z,21.80
2017-09-25T04:55:53.058Z,21.30
2017-09-25T04:58:21.378Z,19.17
2017-09-25T05:00:50.035Z,20.33
2017-09-25T05:03:26.409Z,21.13
2017-09-25T05:05:55.590Z,21.57
2017-09-25T05:08:23.886Z,21.10
2017-09-25T05:10:52.694Z,21.80
2017-09-25T05:13:21.750Z,19.43
2017-09-25T05:15:51.732Z,22.07
2017-09-25T05:18:20.096Z,20.63
2017-09-25T05:20:48.575Z,20.67
2017-09-25T05:23:17.430Z,18.87
2017-09-25T05:25:45.820Z,20.90
2017-09-25T05:28:14.264Z,20.10
2017-09-25T05:30:42.715Z,21.27
2017-09-25T05:33:11.254Z,21.13
2017-09-25T05:35:39.595Z,19.93
2017-09-25T05:38:07.955Z,20.90
2017-09-25T05:40:36.335Z,21.13
2017-09-25T05:43:04.743Z,20.53
2017-09-25T05:45:33.145Z,20.27
2017-09-25T05:48:01.951Z,19.73
2017-09-25T05:50:30.340Z,20.30
2017-09-25T05:52:59.016Z,20.87
2017-09-25T05:55:27.528Z,21.10
2017-09-25T05:57:55.863Z,22.37
2017-09-25T06:00:24.307Z,21.23
2017-09-25T06:02:52.641Z,20.63
2017-09-25T06:05:20.997Z,22.67
2017-09-25T06:07:49.295Z,19.67
2017-09-25T06:10:17.610Z,20.07
2017-09-25T06:12:46.323Z,21.40
2017-09-25T06:15:14.631Z,22.13
2017-09-25T06:17:42.955Z,21.90
2017-09-25T06:20:11.261Z,21.50
2017-09-25T06:22:39.722Z,21.97
2017-09-25T06:25:08.042Z,21.00
2017-09-25T06:27:36.391Z,19.60
2017-09-25T06:30:04.467Z,19.57
2017-09-25T06:32:32.815Z,20.23
2017-09-25T06:35:01.426Z,21.40
2017-09-25T06:37:30.239Z,21.27
2017-09-25T06:39:58.838Z,20.30
2017-09-25T06:42:27.381Z,21.37
2017-09-25T06:44:55.707Z,19.93
2017-09-25T06:47:24.802Z,19.90
2017-09-25T06:49:54.061Z,18.37
2017-09-25T06:52:22.374Z,20.10
2017-09-25T06:54:50.813Z,19.87
2017-09-25T06:57:20.625Z,18.67
2017-09-25T06:59:49.863Z,18.60
2017-09-25T07:02:18.295Z,19.10
2017-09-25T07:04:46.882Z,18.33
2017-09-25T07:07:16.172Z,20.10
2017-09-25T07:09:44.760Z,17.87
2017-09-25T07:12:13.121Z,18.00
2017-09-25T07:14:41.467Z,18.90
2017-09-25T07:17:09.955Z,17.90
2017-09-25T07:19:39.627Z,18.80
2017-09-25T07:22:08.239Z,17.80
2017-09-25T07:24:36.958Z,16.83
2017-09-25T07:27:05.717Z,16.50
2017-09-25T07:29:34.109Z,17.93
2017-09-25T07:32:02.471Z,17.50
2017-09-25T07:34:30.748Z,16.23
2017-09-25T07:36:59.491Z,16.00
2017-09-25T07:39:28.049Z,17.00
2017-09-25T07:41:56.587Z,15.83
2017-09-25T07:44:24.914Z,14.67
2017-09-25T07:46:54.203Z,15.37
2017-09-25T07:49:23.372Z,15.23
2017-09-25T07:51:51.738Z,16.37
2017-09-25T07:54:20.702Z,16.70
2017-09-25T07:56:49.203Z,16.83
2017-09-25T07:59:17.937Z,17.27
2017-09-25T08:01:49.100Z,14.53
2017-09-25T08:04:21.210Z,15.43
2017-09-25T08:06:51.434Z,16.37
2017-09-25T08:09:19.809Z,14.17
2017-09-25T08:11:48.186Z,15.47
2017-09-25T08:14:16.468Z,14.50
2017-09-25T08:16:44.788Z,12.33
2017-09-25T08:19:13.812Z,14.33
2017-09-25T08:21:42.175Z,14.73
2017-09-25T08:24:11.647Z,15.60
2017-09-25T08:26:39.944Z,13.00
2017-09-25T08:29:08.991Z,13.90
2017-09-25T08:31:37.479Z,14.43
2017-09-25T08:34:05.802Z,14.47
2017-09-25T08:36:35.071Z,13.17
2017-09-25T08:39:04.139Z,13.97
2017-09-25T08:41:32.453Z,14.37
2017-09-25T08:44:01.288Z,13.87
2017-09-25T08:46:29.651Z,12.93
2017-09-25T08:48:58.001Z,12.60
2017-09-25T08:51:26.319Z,13.33
2017-09-25T08:53:54.683Z,13.73
2017-09-25T08:56:23.924Z,13.73
2017-09-25T08:58:52.263Z,13.97
2017-09-25T09:01:20.571Z,13.30
2017-09-25T09:03:49.277Z,13.33
2017-09-25T09:06:17.615Z,13.60
2017-09-25T09:08:48.062Z,13.07
2017-09-25T09:11:16.377Z,14.10
2017-09-25T09:13:44.711Z,13.60
2017-09-25T09:16:13.043Z,13.30
2017-09-25T09:18:41.423Z,12.70
2017-09-25T09:21:09.707Z,13.60
2017-09-25T09:23:38.060Z,13.03
2017-09-25T09:26:06.932Z,12.40
2017-09-25T09:28:35.343Z,13.90
2017-09-25T09:31:03.895Z,12.70
2017-09-25T09:33:32.307Z,13.23
2017-09-25T09:36:02.100Z,13.50
2017-09-25T09:38:30.432Z,14.00
2017-09-25T09:40:58.821Z,14.70
2017-09-25T09:43:27.352Z,14.47
2017-09-25T09:45:56.135Z,14.43
2017-09-25T09:48:24.458Z,12.97
2017-09-25T09:50:52.879Z,14.00
2017-09-25T09:53:21.193Z,13.77
2017-09-25T09:55:51.190Z,14.80
2017-09-25T09:58:19.595Z,13.00
2017-09-25T10:00:48.686Z,14.13
2017-09-25T10:03:17.921Z,14.53
2017-09-25T10:05:46.243Z,14.53
2017-09-25T10:08:15.147Z,13.50
2017-09-25T10:10:43.431Z,13.87
2017-09-25T10:13:11.707Z,14.70
2017-09-25T10:15:40.039Z,15.17
2017-09-25T10:18:08.389Z,11.93
2017-09-25T10:20:36.870Z,12.93
2017-09-25T10:23:05.174Z,14.50
2017-09-25T10:25:33.467Z,13.90
2017-09-25T10:28:01.775Z,14.43
2017-09-25T10:30:30.519Z,14.97
2017-09-25T10:32:58.888Z,14.33
2017-09-25T10:35:27.265Z,14.33
2017-09-25T10:37:56.007Z,15.20
2017-09-25T10:40:25.286Z,13.50
2017-09-25T10:42:53.859Z,14.77
2017-09-25T10:45:22.293Z,11.47
2017-09-25T10:47:51.076Z,14.10
2017-09-25T10:50:19.463Z,13.73
2017-09-25T10:52:48.551Z,12.67
2017-09-25T10:55:18.047Z,14.40
2017-09-25T10:57:47.129Z,14.80
2017-09-25T11:00:15.764Z,13.07
2017-09-25T11:02:44.093Z,15.23
2017-09-25T11:05:12.509Z,13.77
2017-09-25T11:07:41.023Z,16.23
2017-09-25T11:10:09.658Z,13.63
2017-09-25T11:12:38.678Z,14.00
2017-09-25T11:15:07.336Z,14.60
2017-09-25T11:17:35.661Z,15.87
2017-09-25T11:20:03.984Z,15.13
2017-09-25T11:22:32.285Z,14.70
2017-09-25T11:25:00.629Z,15.70
2017-09-25T11:27:29.089Z,14.67
2017-09-25T11:29:57.403Z,15.03
2017-09-25T11:32:25.825Z,16.10
2017-09-25T11:34:54.185Z,14.77
2017-09-25T11:37:23.662Z,15.17
2017-09-25T11:39:52.087Z,14.67
2017-09-25T11:42:20.616Z,14.40
2017-09-25T11:44:48.940Z,14.40
2017-09-25T11:47:17.247Z,12.60
2017-09-25T11:49:46.240Z,13.43
2017-09-25T11:52:14.518Z,15.07
2017-09-25T11:54:43.221Z,13.00
2017-09-25T11:57:11.497Z,15.33
2017-09-25T11:59:39.769Z,15.00
2017-09-25T12:02:08.085Z,13.87
2017-09-25T12:04:37.098Z,12.50
2017-09-25T12:07:05.401Z,14.20
2017-09-25T12:09:33.677Z,14.87
2017-09-25T12:12:02.435Z,14.40
2017-09-25T12:14:31.433Z,13.67
2017-09-25T12:16:59.803Z,13.87
2017-09-25T12:19:28.822Z,13.67
2017-09-25T12:21:57.103Z,12.97
2017-09-25T12:24:25.393Z,13.53
2017-09-25T12:26:53.673Z,13.23
2017-09-25T12:29:21.949Z,12.23
2017-09-25T12:31:50.225Z,12.40
2017-09-25T12:34:18.521Z,11.63
2017-09-25T12:36:47.211Z,10.63
2017-09-25T12:39:15.514Z,11.40
2017-09-25T12:41:44.586Z,11.70
2017-09-25T12:44:13.041Z,11.10
2017-09-25T12:46:41.312Z,11.10
2017-09-25T12:49:09.641Z,10.50
2017-09-25T12:51:38.481Z,11.03
2017-09-25T12:54:06.757Z,10.10
2017-09-25T12:56:35.030Z,11.57
2017-09-25T12:59:03.438Z,11.13
2017-09-25T13:01:31.784Z,10.77
2017-09-25T13:04:00.097Z,11.80
2017-09-25T13:06:28.411Z,13.23
2017-09-25T13:08:57.489Z,11.33
2017-09-25T13:11:25.782Z,10.00
2017-09-25T13:13:54.101Z,12.20
2017-09-25T13:16:22.437Z,11.10
2017-09-25T13:18:51.357Z,12.30
2017-09-25T13:21:19.658Z,10.90
2017-09-25T13:23:47.937Z,11.43
2017-09-25T13:26:16.289Z,10.80
2017-09-25T13:28:44.565Z,11.13
2017-09-25T13:31:13.045Z,10.57
2017-09-25T13:33:41.317Z,11.40
2017-09-25T13:36:09.651Z,10.77
2017-09-25T13:38:37.922Z,9.63
2017-09-25T13:41:06.209Z,10.43
2017-09-25T13:43:36.057Z,10.87
2017-09-25T13:46:04.343Z,9.87
2017-09-25T13:48:32.817Z,10.13
2017-09-25T13:51:01.297Z,10.93
2017-09-25T13:53:29.632Z,10.40
2017-09-25T13:55:58.053Z,9.13
2017-09-25T13:58:26.321Z,9.00
2017-09-25T14:03:28.918Z,8.13
2017-09-25T14:05:57.205Z,8.33
2017-09-25T14:08:25.470Z,9.03
2017-09-25T14:10:54.506Z,9.17
2017-09-25T14:13:22.773Z,8.80
2017-09-25T14:15:51.476Z,9.23
2017-09-25T14:18:19.817Z,8.47
2017-09-25T14:20:48.158Z,9.03
2017-09-25T14:23:16.465Z,8.27
2017-09-25T14:25:45.209Z,9.63
2017-09-25T14:28:13.633Z,9.50
2017-09-25T14:30:41.941Z,11.00
2017-09-25T14:33:10.422Z,11.63
2017-09-25T14:35:38.726Z,11.13
2017-09-25T14:38:07.105Z,9.80
2017-09-25T14:40:35.585Z,9.07
2017-09-25T14:43:03.866Z,9.10
2017-09-25T14:45:32.709Z,10.20
2017-09-25T14:48:01.049Z,7.80
2017-09-25T14:50:29.389Z,7.70
2017-09-25T14:52:57.706Z,6.87
2017-09-25T14:55:26.357Z,6.77
2017-09-25T14:57:54.639Z,7.67
2017-09-25T15:00:22.941Z,7.10
2017-09-25T15:02:51.364Z,8.20
2017-09-25T15:05:19.713Z,7.53
2017-09-25T15:07:47.993Z,7.87
2017-09-25T15:10:16.831Z,7.70
2017-09-25T15:12:45.193Z,9.57
2017-09-25T15:15:13.553Z,8.47
2017-09-25T15:17:41.845Z,8.43
2017-09-25T15:20:10.132Z,8.50
2017-09-25T15:22:38.457Z,10.23
2017-09-25T15:25:06.797Z,10.10
2017-09-25T15:27:35.185Z,9.63
2017-09-25T15:30:03.516Z,9.43
2017-09-25T15:32:32.540Z,10.20
2017-09-25T15:35:01.497Z,10.40
2017-09-25T15:37:29.781Z,10.00
2017-09-25T15:39:58.109Z,10.30
2017-09-25T15:42:26.438Z,10.23
2017-09-25T15:44:54.927Z,11.07
2017-09-25T15:47:23.409Z,10.87
2017-09-25T15:49:51.706Z,10.67
2017-09-25T15:52:20.205Z,12.20
2017-09-25T15:54:48.489Z,11.60
2017-09-25T15:57:17.020Z,14.10
2017-09-25T15:59:46.641Z,12.20
2017-09-25T16:02:14.949Z,12.70
2017-09-25T16:04:43.712Z,12.97
2017-09-25T16:07:11.986Z,12.37
2017-09-25T16:09:40.286Z,12.17
2017-09-25T16:12:08.552Z,13.43
2017-09-25T16:14:36.863Z,12.40
2017-09-25T16:17:05.128Z,12.03
2017-09-25T16:19:33.397Z,12.53
2017-09-25T16:22:01.673Z,11.00
2017-09-25T16:24:31.281Z,12.67
2017-09-25T16:26:59.569Z,12.47
2017-09-25T16:29:28.057Z,10.80
2017-09-25T16:31:56.336Z,11.20
2017-09-25T16:34:24.637Z,10.27
2017-09-25T16:36:52.893Z,12.83
2017-09-25T16:39:21.213Z,11.50
2017-09-25T16:41:50.305Z,11.80
2017-09-25T16:44:19.631Z,11.70
2017-09-25T16:46:48.034Z,11.03
2017-09-25T16:49:16.362Z,11.80
2017-09-25T16:51:45.410Z,11.27
2017-09-25T16:54:14.252Z,11.43
2017-09-25T16:56:42.541Z,12.03
2017-09-25T16:59:11.290Z,12.50
2017-09-25T17:01:39.658Z,10.90
2017-09-25T17:04:08.011Z,10.87
2017-09-25T17:06:36.322Z,10.90
2017-09-25T17:09:05.213Z,10.40
2017-09-25T17:11:33.501Z,10.63
2017-09-25T17:14:01.779Z,10.97
2017-09-25T17:16:30.198Z,10.40
2017-09-25T17:18:58.675Z,11.10
2017-09-25T17:21:26.945Z,11.07
2017-09-25T17:23:55.243Z,10.70
2017-09-25T17:26:23.550Z,11.27
2017-09-25T17:28:51.847Z,11.20
2017-09-25T17:31:20.305Z,11.30
2017-09-25T17:33:48.743Z,10.40
2017-09-25T17:36:17.253Z,11.40
2017-09-25T17:38:45.561Z,11.40
2017-09-25T17:41:13.905Z,12.17
2017-09-25T17:43:42.205Z,11.23
2017-09-25T17:46:11.036Z,13.47
2017-09-25T17:48:40.120Z,13.00
2017-09-25T17:51:09.379Z,13.20
2017-09-25T17:53:37.695Z,12.53
2017-09-25T17:56:06.011Z,11.87
2017-09-25T17:58:34.331Z,12.60
2017-09-25T18:01:02.859Z,12.80
2017-09-25T18:03:31.399Z,12.90
2017-09-25T18:05:59.730Z,13.40
2017-09-25T18:08:28.035Z,12.87
2017-09-25T18:10:56.331Z,12.30
2017-09-25T18:13:24.632Z,14.07
2017-09-25T18:15:53.666Z,14.23
2017-09-25T18:18:21.973Z,14.50
2017-09-25T18:20:50.430Z,15.20
2017-09-25T18:23:18.735Z,14.80
2017-09-25T18:25:47.037Z,14.70
2017-09-25T18:28:15.415Z,13.47
2017-09-25T18:30:44.052Z,14.87
2017-09-25T18:33:12.354Z,13.43
2017-09-25T18:35:40.854Z,15.80
2017-09-25T18:38:09.308Z,14.47
2017-09-25T18:40:37.612Z,14.23
2017-09-25T18:43:05.959Z,15.13
2017-09-25T18:45:34.311Z,15.57
2017-09-25T18:48:02.607Z,14.20
2017-09-25T18:50:31.076Z,15.23
2017-09-25T18:52:59.939Z,15.30
2017-09-25T18:55:28.223Z,13.73
2017-09-25T18:57:56.746Z,13.60
2017-09-25T19:00:25.027Z,14.20
2017-09-25T19:02:53.634Z,13.13
2017-09-25T19:05:21.955Z,14.77
2017-09-25T19:07:50.270Z,13.70
2017-09-25T19:10:18.751Z,14.40
2017-09-25T19:12:47.227Z,13.60
2017-09-25T19:15:15.554Z,13.17
2017-09-25T19:17:45.910Z,12.90
2017-09-25T19:20:14.201Z,15.43
2017-09-25T19:22:42.532Z,15.10
2017-09-25T19:25:10.845Z,14.27
2017-09-25T19:27:39.131Z,14.33
2017-09-25T19:30:07.428Z,14.40
2017-09-25T19:32:36.015Z,14.13
2017-09-25T19:35:04.455Z,12.80
2017-09-25T19:37:33.196Z,14.10
2017-09-25T19:40:01.567Z,13.97
2017-09-25T19:42:30.111Z,12.90
2017-09-25T19:44:58.492Z,14.00
2017-09-25T19:47:27.307Z,12.27
2017-09-25T19:49:56.131Z,13.17
2017-09-25T19:52:24.672Z,12.60
2017-09-25T19:54:53.453Z,13.57
2017-09-25T19:57:21.888Z,12.70
2017-09-25T19:59:51.108Z,13.17
2017-09-25T20:02:19.488Z,12.83
2017-09-25T20:04:49.960Z,14.30
2017-09-25T20:07:18.374Z,12.70
2017-09-25T20:09:47.799Z,13.33
2017-09-25T20:12:16.499Z,12.10
2017-09-25T20:14:45.379Z,12.10
2017-09-25T20:17:13.891Z,13.07
2017-09-25T20:19:42.391Z,11.30
2017-09-25T20:22:10.707Z,13.10
2017-09-25T20:24:39.785Z,12.37
2017-09-25T20:27:08.872Z,11.90
2017-09-25T20:29:37.322Z,11.83
2017-09-25T20:32:05.631Z,12.30
2017-09-25T20:34:33.929Z,13.20
2017-09-25T20:37:03.024Z,12.33
2017-09-25T20:39:32.660Z,12.80
2017-09-25T20:42:01.031Z,12.53
2017-09-25T20:44:29.380Z,11.40
2017-09-25T20:46:57.688Z,11.03
2017-09-25T20:49:26.002Z,10.90
2017-09-25T20:51:54.317Z,10.40
2017-09-25T20:54:23.336Z,9.53
2017-09-25T20:56:51.644Z,9.83
2017-09-25T20:59:19.919Z,10.03
2017-09-25T21:01:48.251Z,9.30
2017-09-25T21:04:17.297Z,8.70
2017-09-25T21:06:46.194Z,9.20
2017-09-25T21:09:14.669Z,9.33
2017-09-25T21:11:42.997Z,8.40
2017-09-25T21:14:12.086Z,8.77
2017-09-25T21:16:41.163Z,8.83
2017-09-25T21:19:09.535Z,8.63
2017-09-25T21:21:38.074Z,7.57
2017-09-25T21:24:06.455Z,7.30
2017-09-25T21:26:34.851Z,8.43
2017-09-25T21:29:03.291Z,7.37
2017-09-25T21:31:32.217Z,8.70
2017-09-25T21:34:00.525Z,8.40
2017-09-25T21:36:28.997Z,7.40
2017-09-25T21:38:57.487Z,8.10
2017-09-25T21:41:25.919Z,8.37
2017-09-25T21:43:54.238Z,7.63
2017-09-25T21:46:22.550Z,7.73
2017-09-25T21:48:50.812Z,7.83
2017-09-25T21:51:19.514Z,8.13
2017-09-25T21:53:47.824Z,8.70
2017-09-25T21:56:16.132Z,7.97
2017-09-25T21:58:44.483Z,9.30
2017-09-25T22:01:12.996Z,8.20
2017-09-25T22:03:41.291Z,9.00
2017-09-25T22:06:09.615Z,9.33
2017-09-25T22:08:39.515Z,9.30
2017-09-25T22:11:07.847Z,9.37
2017-09-25T22:13:36.171Z,9.13
2017-09-25T22:16:04.502Z,10.00
2017-09-25T22:18:32.911Z,9.13
2017-09-25T22:21:01.463Z,9.57
2017-09-25T22:23:30.047Z,9.67
2017-09-25T22:25:58.621Z,8.37
2017-09-25T22:28:26.947Z,8.63
2017-09-25T22:30:56.717Z,9.00
2017-09-25T22:33:25.119Z,10.50
2017-09-25T22:35:53.975Z,11.70
2017-09-25T22:38:22.347Z,9.20
2017-09-25T22:40:50.930Z,9.70
2017-09-25T22:43:19.304Z,9.50
2017-09-25T22:45:47.709Z,10.93
2017-09-25T22:48:16.012Z,10.00
2017-09-25T22:50:44.505Z,9.70
2017-09-25T22:53:12.845Z,10.30
2017-09-25T22:55:41.855Z,9.50
2017-09-25T22:58:10.215Z,10.63
2017-09-25T23:00:38.587Z,9.60
2017-09-25T23:03:06.983Z,10.40
2017-09-25T23:05:35.743Z,9.63
2017-09-25T23:08:04.540Z,10.37
2017-09-25T23:10:33.237Z,9.57
2017-09-25T23:13:01.826Z,9.80
2017-09-25T23:15:30.384Z,10.10
2017-09-25T23:17:58.781Z,10.30
2017-09-25T23:20:27.150Z,10.77
2017-09-25T23:22:55.546Z,9.20
2017-09-25T23:25:23.847Z,10.43
2017-09-25T23:27:52.187Z,9.97
2017-09-25T23:30:20.615Z,9.93
2017-09-25T23:32:49.884Z,10.93
2017-09-25T23:35:18.576Z,10.90
2017-09-25T23:37:46.871Z,9.70
2017-09-25T23:40:15.165Z,10.87
2017-09-25T23:42:43.769Z,11.07
2017-09-25T23:45:12.113Z,9.70
2017-09-25T23:47:40.397Z,10.30
2017-09-25T23:50:10.169Z,12.07
2017-09-25T23:52:38.465Z,11.57
2017-09-25T23:55:07.177Z,11.87
2017-09-25T23:57:36.303Z,10.03
